Time;durP1;ratioP1;P1;durP2;ratioP2;P2;SDS_P1;SDS_P2;PMS_P1;PMS_P2;Temp;Humidity;BMP_temperature;BMP_pressure;BME280_temperature;BME280_humidity;BME280_pressure;Samples;Min_cycle;Max_cycle;Signal;HPM_P1;HPM_P2
2021/11/24 00:00:49;;;;;;;11.33;8.03;;;;;;;-2.04;84.10;100520.59;5044547;28;20245;-80
2021/11/24 00:03:19;;;;;;;10.83;7.40;;;;;;;-2.05;83.73;100523.34;5042816;23;20194;-81
2021/11/24 00:05:46;;;;;;;10.83;7.73;;;;;;;-2.13;83.88;100510.78;5037120;28;20219;-81
2021/11/24 00:08:14;;;;;;;9.53;7.83;;;;;;;-2.19;83.92;100499.94;5071977;28;20244;-80
2021/11/24 00:10:45;;;;;;;10.07;7.80;;;;;;;-2.07;84.38;100512.97;5073013;28;20239;-81
2021/11/24 00:13:15;;;;;;;10.50;7.83;;;;;;;-2.12;84.04;100507.22;5076212;23;20260;-81
2021/11/24 00:15:42;;;;;;;9.23;7.37;;;;;;;-2.18;83.86;100501.59;5071282;28;20252;-81
2021/11/24 00:18:10;;;;;;;10.37;7.43;;;;;;;-2.15;84.00;100511.88;5036219;28;20201;-81
2021/11/24 00:20:43;;;;;;;8.57;7.13;;;;;;;-2.22;83.75;100493.97;5067484;28;20225;-80
2021/11/24 00:23:26;;;;;;;10.27;7.70;;;;;;;-2.16;83.57;100507.56;5070566;28;20292;-81
2021/11/24 00:25:53;;;;;;;8.93;7.30;;;;;;;-2.32;83.74;100482.50;5069488;28;20229;-81
2021/11/24 00:28:23;;;;;;;10.33;7.57;;;;;;;-2.25;83.81;100494.22;5050665;28;20209;-81
2021/11/24 00:30:53;;;;;;;10.20;7.73;;;;;;;-2.22;83.86;100514.97;5056512;28;20224;-81
2021/11/24 00:33:27;;;;;;;9.63;7.30;;;;;;;-2.26;84.26;100494.31;5089033;28;20192;-81
2021/11/24 00:35:57;;;;;;;8.80;7.13;;;;;;;-2.23;84.13;100494.91;5089588;28;20631;-82
2021/11/24 00:38:25;;;;;;;10.13;7.47;;;;;;;-2.17;84.00;100506.75;5087646;28;20220;-81
2021/11/24 00:40:52;;;;;;;9.40;6.67;;;;;;;-2.25;84.06;100496.84;5070491;28;20224;-81
2021/11/24 00:43:21;;;;;;;10.17;7.33;;;;;;;-2.19;83.89;100511.25;5050784;28;20260;-81
2021/11/24 00:45:50;;;;;;;9.17;7.07;;;;;;;-2.17;84.05;100512.00;5077267;23;20221;-81
2021/11/24 00:48:21;;;;;;;9.37;7.10;;;;;;;-2.15;84.35;100506.63;5053035;28;20213;-81
2021/11/24 00:51:05;;;;;;;9.87;6.77;;;;;;;-2.19;83.98;100499.94;5055273;28;20570;-80
2021/11/24 00:53:35;;;;;;;8.07;6.87;;;;;;;-2.19;84.28;100506.00;5084664;22;20228;-81
2021/11/24 00:56:11;;;;;;;8.40;6.10;;;;;;;-2.14;84.37;100492.53;5169036;22;20225;-81
2021/11/24 00:58:42;;;;;;;9.37;6.90;;;;;;;-2.17;84.51;100498.03;5066342;23;20229;-81
2021/11/24 01:01:09;;;;;;;8.47;5.93;;;;;;;-2.06;84.60;100498.03;5068591;23;20302;-81
2021/11/24 01:03:38;;;;;;;7.20;5.93;;;;;;;-2.08;84.65;100490.28;5053368;28;20270;-80
2021/11/24 01:06:06;;;;;;;10.40;6.30;;;;;;;-2.00;84.65;100490.50;5035174;28;20209;-81
2021/11/24 01:08:54;;;;;;;6.97;5.77;;;;;;;-1.94;84.61;100489.22;5069082;28;20237;-81
2021/11/24 01:11:21;;;;;;;8.23;5.73;;;;;;;-1.83;84.71;100491.84;5068243;28;20648;-81
2021/11/24 01:13:48;;;;;;;7.10;5.90;;;;;;;-1.75;84.70;100493.88;5032667;23;20246;-83
2021/11/24 01:16:16;;;;;;;6.37;5.50;;;;;;;-1.72;84.20;100493.59;5077826;22;20592;-81
2021/11/24 01:18:57;;;;;;;6.20;5.37;;;;;;;-1.70;84.27;100494.34;5086585;28;20215;-81
2021/11/24 01:21:27;;;;;;;6.60;5.20;;;;;;;-1.80;84.06;100481.94;5091075;28;20230;-82
2021/11/24 01:23:56;;;;;;;7.67;5.33;;;;;;;-1.75;84.27;100483.34;5094659;22;20272;-81
2021/11/24 01:26:28;;;;;;;5.30;4.53;;;;;;;-1.62;84.15;100495.41;5089296;23;20220;-81
2021/11/24 01:29:13;;;;;;;5.57;4.50;;;;;;;-1.69;84.05;100475.00;5048731;23;20213;-81
2021/11/24 01:31:44;;;;;;;6.17;4.70;;;;;;;-1.64;83.92;100473.69;5055553;28;20218;-81
2021/11/24 01:34:14;;;;;;;5.63;4.73;;;;;;;-1.59;83.74;100478.56;5034908;23;20229;-81
2021/11/24 01:36:44;;;;;;;5.93;4.40;;;;;;;-1.59;83.52;100468.91;5021416;28;20230;-81
2021/11/24 01:39:27;;;;;;;5.73;4.40;;;;;;;-1.44;83.44;100487.84;5093631;23;20239;-81
2021/11/24 01:42:18;;;;;;;5.97;4.27;;;;;;;-1.44;83.07;100477.34;5112512;22;20212;-81
2021/11/24 01:45:28;;;;;;;6.13;4.20;;;;;;;-1.47;82.84;100464.44;5095610;23;20247;-82
2021/11/24 01:48:11;;;;;;;5.83;3.97;;;;;;;-1.46;82.80;100464.34;5138177;22;20224;-80
2021/11/24 01:50:59;;;;;;;5.73;4.20;;;;;;;-1.46;82.64;100460.88;5121893;22;20206;-81
2021/11/24 01:53:35;;;;;;;5.43;4.10;;;;;;;-1.50;82.64;100452.41;5087476;28;20204;-82
2021/11/24 01:56:15;;;;;;;6.90;4.80;;;;;;;-1.47;82.46;100456.56;5113582;22;20204;31
2021/11/24 01:59:13;;;;;;;9.90;6.97;;;;;;;-1.49;82.54;100458.47;5063075;23;20248;-81
2021/11/24 02:02:00;;;;;;;8.27;6.83;;;;;;;-1.51;82.59;100448.09;5109729;22;20222;-80
2021/11/24 02:04:27;;;;;;;6.27;5.30;;;;;;;-1.59;82.52;100447.88;5084022;22;21339;-81
2021/11/24 02:07:21;;;;;;;5.27;4.43;;;;;;;-1.58;82.48;100456.56;5074864;23;20233;-81
2021/11/24 02:09:50;;;;;;;4.57;4.00;;;;;;;-1.71;82.54;100440.94;5064645;23;20225;-82
2021/11/24 02:12:45;;;;;;;4.83;4.07;;;;;;;-1.66;82.40;100440.59;5068490;23;20277;-82
2021/11/24 02:15:49;;;;;;;3.93;3.53;;;;;;;-1.81;82.37;100419.81;5072039;23;20232;-82
2021/11/24 02:18:20;;;;;;;4.47;3.70;;;;;;;-1.75;82.50;100425.56;5104528;22;20580;-81
2021/11/24 02:21:27;;;;;;;6.10;3.97;;;;;;;-1.66;82.79;100433.53;5113799;28;20216;-81
2021/11/24 02:23:57;;;;;;;5.10;3.90;;;;;;;-1.68;82.30;100429.38;5075083;23;20298;-81
2021/11/24 02:26:32;;;;;;;4.47;3.90;;;;;;;-1.61;82.21;100417.41;5086125;23;20240;-82
2021/11/24 02:29:16;;;;;;;5.53;4.20;;;;;;;-1.56;82.14;100420.50;5065829;28;20220;-83
2021/11/24 02:32:06;;;;;;;4.60;3.70;;;;;;;-1.52;81.96;100422.75;5168992;23;20296;-81
2021/11/24 02:34:56;;;;;;;4.73;3.80;;;;;;;-1.61;81.43;100412.16;5098984;23;20229;-81
2021/11/24 02:37:23;;;;;;;5.77;3.87;;;;;;;-1.58;81.65;100418.00;5080710;23;20564;-81
2021/11/24 02:39:53;;;;;;;4.53;3.77;;;;;;;-1.53;81.38;100420.25;5043957;28;20232;-81
2021/11/24 02:42:22;;;;;;;4.83;3.90;;;;;;;-1.57;81.42;100413.56;5075958;28;20208;-81
2021/11/24 02:44:51;;;;;;;4.77;3.63;;;;;;;-1.64;81.11;100409.78;5106503;23;20271;-81
2021/11/24 02:47:36;;;;;;;4.77;3.77;;;;;;;-1.64;81.46;100409.78;5085097;28;20192;-81
2021/11/24 02:50:17;;;;;;;5.23;3.40;;;;;;;-1.58;81.62;100415.38;5090445;23;20220;-81
2021/11/24 02:52:51;;;;;;;5.27;4.17;;;;;;;-1.57;81.13;100419.66;5083197;23;20301;-82
2021/11/24 02:55:24;;;;;;;3.93;2.93;;;;;;;-1.66;81.59;100402.00;5102765;22;20602;-81
2021/11/24 02:57:56;;;;;;;5.10;3.60;;;;;;;-1.66;81.57;100394.13;5105840;23;20250;-81
2021/11/24 03:00:27;;;;;;;3.93;3.13;;;;;;;-1.49;81.42;100416.41;5101731;22;20220;-81
2021/11/24 03:03:35;;;;;;;3.60;3.20;;;;;;;-1.47;81.86;100412.72;5071525;23;20212;-81
2021/11/24 03:06:24;;;;;;;4.40;3.53;;;;;;;-1.47;81.54;100411.88;5118435;22;20219;-81
2021/11/24 03:09:21;;;;;;;3.93;3.20;;;;;;;-1.52;81.78;100399.09;5094563;22;20220;-81
2021/11/24 03:12:09;;;;;;;3.90;3.20;;;;;;;-1.44;81.06;100409.00;5125842;22;20227;-82
2021/11/24 03:14:56;;;;;;;3.63;3.00;;;;;;;-1.47;81.26;100391.69;5106728;22;20250;-82
2021/11/24 03:17:57;;;;;;;4.30;3.40;;;;;;;-1.49;81.37;100404.09;5105563;22;20240;-81
2021/11/24 03:20:40;;;;;;;3.40;2.83;;;;;;;-1.46;81.18;100395.16;5077358;28;20193;-81
2021/11/24 03:23:30;;;;;;;4.57;3.00;;;;;;;-1.48;81.42;100392.66;5084934;22;20252;-81
2021/11/24 03:26:02;;;;;;;3.63;3.00;;;;;;;-1.55;81.15;100388.03;5088233;23;20230;-81
2021/11/24 03:28:32;;;;;;;4.00;3.10;;;;;;;-1.49;81.36;100392.75;5080571;23;20229;-82
2021/11/24 03:31:28;;;;;;;3.17;2.77;;;;;;;-1.48;81.20;100394.44;5096521;28;20219;-82
2021/11/24 03:33:56;;;;;;;3.97;2.90;;;;;;;-1.53;80.94;100393.97;5112570;22;20250;-81
2021/11/24 03:36:40;;;;;;;3.27;2.60;;;;;;;-1.57;80.84;100382.03;5109354;22;20203;-81
2021/11/24 03:39:38;;;;;;;3.97;2.83;;;;;;;-1.56;81.21;100389.81;5124748;22;20204;-81
2021/11/24 03:42:36;;;;;;;4.17;2.90;;;;;;;-1.61;81.35;100389.34;5184809;22;20188;-80
2021/11/24 03:45:26;;;;;;;3.67;2.70;;;;;;;-1.58;81.19;100388.25;5035889;28;20183;-81
2021/11/24 03:48:41;;;;;;;4.03;2.83;;;;;;;-1.60;81.07;100384.94;5066328;23;20242;-82
2021/11/24 03:51:38;;;;;;;3.47;2.77;;;;;;;-1.60;81.10;100383.13;5107611;22;20211;-81
2021/11/24 03:54:26;;;;;;;3.50;3.00;;;;;;;-1.65;81.38;100379.19;5097027;23;20232;-81
2021/11/24 03:57:09;;;;;;;3.27;2.70;;;;;;;-1.64;81.26;100386.97;5121324;22;20234;-81
2021/11/24 04:00:43;;;;;;;6.53;3.33;;;;;;;-1.79;81.55;100359.31;5104580;23;20216;-82
2021/11/24 04:03:14;;;;;;;4.23;2.80;;;;;;;-1.69;81.26;100376.00;5113656;22;20216;-82
2021/11/24 04:06:04;;;;;;;3.13;2.83;;;;;;;-1.67;81.35;100378.47;5131059;22;20249;-81
2021/11/24 04:08:38;;;;;;;3.80;2.60;;;;;;;-1.67;81.49;100374.06;5065522;28;20216;-82
2021/11/24 04:11:43;;;;;;;4.67;2.83;;;;;;;-1.68;80.89;100377.63;5084340;23;20230;-81
2021/11/24 04:14:42;;;;;;;4.17;2.63;;;;;;;-1.65;80.83;100379.19;5107856;22;20216;-81
2021/11/24 04:17:27;;;;;;;2.87;2.40;;;;;;;-1.81;81.18;100354.16;5103362;22;20208;-82
2021/11/24 04:20:18;;;;;;;4.30;2.43;;;;;;;-1.65;81.14;100372.16;5091426;23;20215;-82
2021/11/24 04:22:50;;;;;;;3.33;2.60;;;;;;;-1.77;81.31;100366.09;5092419;28;20176;-82
2021/11/24 04:25:18;;;;;;;4.57;2.50;;;;;;;-1.65;81.08;100368.69;5066177;28;20231;-81
2021/11/24 04:27:47;;;;;;;3.53;2.73;;;;;;;-1.62;80.83;100386.84;5090140;28;20254;-82
2021/11/24 04:30:14;;;;;;;4.97;3.10;;;;;;;-1.68;80.93;100377.63;5088453;22;20237;-81
2021/11/24 04:32:41;;;;;;;4.67;2.87;;;;;;;-1.72;80.50;100373.59;5073254;23;20675;-81
2021/11/24 04:35:09;;;;;;;4.00;3.00;;;;;;;-1.69;80.79;100383.03;5092188;23;20232;-82
2021/11/24 04:37:37;;;;;;;4.23;2.67;;;;;;;-1.70;81.26;100379.56;5069387;28;20228;-82
2021/11/24 04:40:06;;;;;;;3.20;2.87;;;;;;;-1.70;81.00;100381.38;5087137;28;20193;-82
2021/11/24 04:42:35;;;;;;;4.60;2.80;;;;;;;-1.79;81.37;100380.31;5067202;28;20225;-82
2021/11/24 04:45:05;;;;;;;3.40;2.73;;;;;;;-1.71;81.46;100377.91;5049461;28;20256;-81
2021/11/24 04:47:33;;;;;;;3.50;2.53;;;;;;;-1.76;81.43;100366.91;5050874;28;20279;-81
2021/11/24 04:50:01;;;;;;;3.53;2.80;;;;;;;-1.70;81.13;100384.00;5033872;28;20275;-82
2021/11/24 04:52:27;;;;;;;4.07;2.90;;;;;;;-1.76;81.02;100369.56;5033715;28;20229;-82
2021/11/24 04:54:58;;;;;;;3.73;2.73;;;;;;;-1.74;81.33;100369.44;5068396;23;20271;-80
2021/11/24 04:57:25;;;;;;;4.47;2.50;;;;;;;-1.75;81.23;100365.97;5071064;28;20243;-81
2021/11/24 04:59:53;;;;;;;4.97;2.80;;;;;;;-1.70;81.30;100379.56;5087549;28;20203;-82
2021/11/24 05:02:25;;;;;;;3.00;2.70;;;;;;;-1.71;81.16;100375.28;5024041;23;20244;-82
2021/11/24 05:04:53;;;;;;;5.27;2.80;;;;;;;-1.70;81.48;100376.09;5037826;28;20243;-82
2021/11/24 05:07:24;;;;;;;3.63;2.90;;;;;;;-1.70;81.32;100378.75;5052970;28;20233;-82
2021/11/24 05:10:06;;;;;;;4.07;3.00;;;;;;;-1.73;81.06;100379.00;5079418;22;20236;-82
2021/11/24 05:12:38;;;;;;;5.33;2.77;;;;;;;-1.77;81.08;100368.72;5050778;28;20229;-82
2021/11/24 05:15:09;;;;;;;3.10;2.47;;;;;;;-1.77;80.89;100382.81;5065783;28;20237;-82
2021/11/24 05:17:52;;;;;;;3.67;2.70;;;;;;;-1.76;81.11;100387.94;5088359;22;20279;-82
2021/11/24 05:20:28;;;;;;;3.30;2.43;;;;;;;-1.76;80.87;100380.06;5050341;28;20241;-81
2021/11/24 05:23:02;;;;;;;3.07;2.63;;;;;;;-1.79;80.78;100386.41;5075877;28;20247;-81
2021/11/24 05:25:34;;;;;;;2.83;2.53;;;;;;;-1.84;80.96;100378.06;5087539;23;20224;-81
2021/11/24 05:28:01;;;;;;;4.67;2.50;;;;;;;-1.92;80.58;100366.50;5062783;28;20180;-81
2021/11/24 05:30:28;;;;;;;3.93;2.60;;;;;;;-1.86;80.70;100376.50;5102802;22;20205;-82
2021/11/24 05:33:11;;;;;;;3.60;2.63;;;;;;;-1.87;81.03;100377.47;5073210;22;20188;-82
2021/11/24 05:36:28;;;;;;;2.80;2.40;;;;;;;-1.86;80.63;100374.69;5089870;22;20205;-81
2021/11/24 05:38:57;;;;;;;2.70;2.43;;;;;;;-1.90;80.63;100367.19;5078824;23;20233;-81
2021/11/24 05:41:43;;;;;;;4.03;2.50;;;;;;;-2.07;80.67;100350.16;5089290;22;20208;-81
2021/11/24 05:44:32;;;;;;;5.07;2.60;;;;;;;-2.03;80.46;100371.75;5080927;22;20232;-81
2021/11/24 05:51:09;;;;;;;3.60;2.40;;;;;;;-2.03;80.55;100375.22;5023832;28;20237;-82
2021/11/24 05:53:41;;;;;;;3.30;2.70;;;;;;;-2.14;80.79;100377.84;5059020;22;20212;-81
2021/11/24 05:56:12;;;;;;;4.60;2.97;;;;;;;-2.10;80.72;100378.47;5090280;22;20213;-82
2021/11/24 05:58:42;;;;;;;2.83;2.53;;;;;;;-2.13;80.78;100373.44;5095355;28;20230;-82
2021/11/24 06:01:12;;;;;;;5.57;2.83;;;;;;;-2.20;80.74;100357.34;5080568;22;20217;-81
2021/11/24 06:04:25;;;;;;;2.93;2.40;;;;;;;-2.14;80.77;100369.97;5092197;23;20213;-83
2021/11/24 06:06:57;;;;;;;3.03;2.57;;;;;;;-2.15;80.79;100373.56;5056895;28;20261;-82
2021/11/24 06:09:28;;;;;;;4.27;2.83;;;;;;;-2.12;80.73;100378.56;5042054;28;20201;-82
2021/11/24 06:15:10;;;;;;;4.20;2.57;;;;;;;-2.06;80.73;100379.88;5096778;23;20250;-82
2021/11/24 06:18:12;;;;;;;4.93;3.40;;;;;;;-2.09;80.80;100385.34;5069231;28;20224;-82
2021/11/24 06:20:49;;;;;;;4.33;3.13;;;;;;;-2.10;80.66;100384.53;5106888;22;20220;-81
2021/11/24 06:23:17;;;;;;;3.67;2.80;;;;;;;-2.12;80.38;100388.22;5104304;22;20220;-81
2021/11/24 06:25:48;;;;;;;3.37;2.23;;;;;;;-2.10;80.28;100381.88;5090431;23;20225;-81
2021/11/24 06:28:25;;;;;;;3.27;2.60;;;;;;;-2.04;80.37;100396.34;5095725;22;20240;-81
2021/11/24 06:31:11;;;;;;;4.50;2.63;;;;;;;-2.08;80.35;100380.00;4970929;23;3541633;-81
2021/11/24 06:33:38;;;;;;;4.67;2.80;;;;;;;-2.13;80.10;100370.81;5094366;23;20228;-81
2021/11/24 06:36:30;;;;;;;5.70;2.60;;;;;;;-1.96;80.09;100391.34;5111154;23;20232;-82
2021/11/24 06:39:41;;;;;;;6.80;2.80;;;;;;;-1.93;79.96;100397.19;5095913;23;20213;31
2021/11/24 06:42:10;;;;;;;4.50;2.60;;;;;;;-1.90;79.54;100390.81;5056787;28;20205;-82
2021/11/24 06:44:49;;;;;;;4.13;2.90;;;;;;;-1.90;79.55;100388.19;5042874;28;20182;-82
2021/11/24 06:47:38;;;;;;;3.60;2.97;;;;;;;-1.98;79.40;100374.84;5052328;23;20224;-82
2021/11/24 06:50:10;;;;;;;4.00;2.83;;;;;;;-1.73;79.45;100402.63;5093975;22;20224;-81
2021/11/24 06:52:44;;;;;;;3.83;2.67;;;;;;;-1.66;79.19;100404.63;5076248;23;20215;-82
2021/11/24 06:55:22;;;;;;;4.03;2.67;;;;;;;-1.56;79.14;100410.84;5087302;22;20252;-81
2021/11/24 06:57:58;;;;;;;6.77;2.70;;;;;;;-1.48;79.06;100390.00;5048711;23;20221;-82
2021/11/24 07:00:33;;;;;;;5.03;3.33;;;;;;;-1.37;78.48;100376.84;5075576;22;20313;-82
2021/11/24 07:03:25;;;;;;;4.47;3.20;;;;;;;-1.04;78.27;100399.53;5084114;23;20240;-82
2021/11/24 07:10:57;;;;;;;6.10;3.30;;;;;;;-0.67;77.05;100405.19;5102677;23;20247;-81
2021/11/24 07:14:11;;;;;;;3.90;3.27;;;;;;;-0.40;76.59;100411.69;5101534;22;20288;-82
2021/11/24 07:17:10;;;;;;;4.73;3.00;;;;;;;-0.31;76.21;100395.94;5088384;22;20269;-82
2021/11/24 07:19:38;;;;;;;4.03;2.73;;;;;;;-0.19;75.30;100394.06;5065822;23;20233;-82
2021/11/24 07:22:09;;;;;;;5.00;3.03;;;;;;;-0.02;75.04;100396.91;5079127;23;20233;-82
2021/11/24 07:24:37;;;;;;;4.17;2.30;;;;;;;0.11;74.86;100403.72;5072773;28;20235;-82
2021/11/24 07:27:05;;;;;;;4.47;2.90;;;;;;;0.27;74.37;100404.06;5072621;28;20227;-82
2021/11/24 07:29:32;;;;;;;4.43;2.67;;;;;;;0.33;73.62;100401.72;5082561;28;20209;-82
2021/11/24 07:32:00;;;;;;;5.47;2.80;;;;;;;0.41;72.95;100396.63;5081169;28;20225;-82
2021/11/24 07:34:27;;;;;;;4.73;3.10;;;;;;;0.52;73.58;100405.34;5070850;28;20209;-82
2021/11/24 07:36:55;;;;;;;6.83;3.00;;;;;;;0.64;73.22;100420.94;5057165;28;20241;-82
2021/11/24 07:39:28;;;;;;;3.03;2.63;;;;;;;0.84;72.59;100412.03;5076545;22;20229;-81
2021/11/24 07:42:07;;;;;;;4.90;2.97;;;;;;;0.94;72.42;100400.66;5098871;23;20235;-82
2021/11/24 07:44:41;;;;;;;7.10;3.13;;;;;;;1.08;71.45;100395.78;5113610;28;20246;-81
2021/11/24 07:47:12;;;;;;;7.27;3.20;;;;;;;1.18;71.18;100386.06;5095494;28;20242;-81
2021/11/24 07:49:47;;;;;;;3.53;2.87;;;;;;;1.31;71.42;100388.41;5111678;28;20224;-82
2021/11/24 07:52:17;;;;;;;4.90;3.10;;;;;;;1.29;70.41;100372.72;5108688;23;20311;-82
2021/11/24 07:54:48;;;;;;;6.40;3.20;;;;;;;1.53;70.71;100393.38;5092903;28;20213;-82
2021/11/24 07:57:40;;;;;;;4.40;2.80;;;;;;;1.65;69.15;100397.50;5096317;22;20209;-82
2021/11/24 08:00:28;;;;;;;4.60;2.90;;;;;;;1.74;69.63;100375.50;5080242;22;20232;-81
2021/11/24 08:03:11;;;;;;;9.23;3.33;;;;;;;1.91;68.93;100371.25;5038296;23;20181;-83
2021/11/24 08:05:52;;;;;;;4.63;2.80;;;;;;;2.09;68.97;100368.66;5081566;22;20609;-81
2021/11/24 08:08:22;;;;;;;4.97;3.03;;;;;;;2.26;68.28;100377.59;5090799;22;20224;-81
2021/11/24 08:10:48;;;;;;;6.90;4.50;;;;;;;2.35;67.70;100371.44;5092814;28;20317;-81
2021/11/24 08:13:21;;;;;;;6.23;3.47;;;;;;;2.52;68.37;100370.63;5095133;28;20208;-82
2021/11/24 08:16:08;;;;;;;6.30;3.63;;;;;;;2.71;67.72;100359.06;5215547;22;20224;-82
2021/11/24 08:18:35;;;;;;;4.57;3.70;;;;;;;2.86;66.89;100339.00;5111338;28;20330;-81
2021/11/24 08:21:13;;;;;;;5.63;3.50;;;;;;;3.01;66.85;100337.47;5110913;22;20285;-82
2021/11/24 08:23:45;;;;;;;6.60;3.73;;;;;;;3.30;66.46;100353.09;5116519;28;20285;-82
2021/11/24 08:26:40;;;;;;;5.30;4.53;;;;;;;3.52;65.96;100363.16;5123678;22;20300;-81
2021/11/24 08:29:11;;;;;;;4.67;2.80;;;;;;;3.67;65.53;100363.41;5123671;22;20224;-81
2021/11/24 08:31:51;;;;;;;3.77;2.70;;;;;;;3.60;65.19;100341.16;5106289;23;20223;-82
2021/11/24 08:34:39;;;;;;;6.33;2.80;;;;;;;3.66;64.96;100351.97;5114297;28;20222;-82
2021/11/24 08:37:42;;;;;;;4.53;3.10;;;;;;;3.55;64.70;100350.41;5124229;22;20240;-81
2021/11/24 08:41:16;;;;;;;6.77;4.33;;;;;;;3.43;65.06;100348.19;5063835;22;20210;-81
2021/11/24 08:44:00;;;;;;;4.00;3.40;;;;;;;3.37;65.54;100352.28;5115507;28;20214;-82
2021/11/24 08:46:30;;;;;;;4.73;3.07;;;;;;;3.26;65.65;100341.97;5123687;22;20228;-81
2021/11/24 08:49:58;;;;;;;4.80;2.80;;;;;;;3.29;65.59;100344.31;5065641;22;20226;-81
2021/11/24 08:52:29;;;;;;;3.03;2.60;;;;;;;3.23;65.39;100347.56;5081751;22;20259;-82
2021/11/24 08:55:04;;;;;;;3.97;2.70;;;;;;;3.19;66.35;100348.03;5068575;22;20196;31
2021/11/24 08:57:54;;;;;;;6.63;3.43;;;;;;;3.24;66.23;100349.22;5147172;23;20239;-82
2021/11/24 09:00:46;;;;;;;4.07;2.60;;;;;;;3.29;66.06;100351.41;5105810;22;20257;-82
2021/11/24 09:03:17;;;;;;;4.70;2.40;;;;;;;3.25;65.93;100336.81;5098917;22;20207;-82
2021/11/24 09:05:57;;;;;;;3.93;2.60;;;;;;;3.32;66.12;100343.16;5105136;22;20243;-81
2021/11/24 09:09:39;;;;;;;5.47;3.07;;;;;;;3.39;66.68;100333.59;5094939;28;20236;-81
2021/11/24 09:12:30;;;;;;;6.40;2.90;;;;;;;3.43;66.53;100332.31;5072693;28;20218;-82
2021/11/24 09:15:18;;;;;;;3.20;2.90;;;;;;;3.51;66.89;100327.03;5061696;28;20217;-81
2021/11/24 09:18:13;;;;;;;5.37;3.60;;;;;;;3.51;66.28;100322.56;5061648;28;20197;-82
2021/11/24 09:21:05;;;;;;;3.90;3.03;;;;;;;3.54;66.15;100305.56;5123025;22;20240;-82
2021/11/24 09:23:38;;;;;;;3.97;3.00;;;;;;;3.62;66.04;100308.22;5115537;28;20207;-81
2021/11/24 09:29:25;;;;;;;5.00;3.37;;;;;;;3.83;66.28;100313.13;5070562;22;20200;-83
2021/11/24 09:32:04;;;;;;;3.90;3.20;;;;;;;3.94;66.37;100318.13;5121805;22;20240;-81
2021/11/24 09:34:36;;;;;;;4.97;4.10;;;;;;;4.05;66.06;100309.06;5105660;22;20224;-82
2021/11/24 09:37:06;;;;;;;6.40;4.60;;;;;;;4.06;66.46;100303.59;5104627;22;20188;-81
2021/11/24 09:40:07;;;;;;;6.20;4.60;;;;;;;4.27;65.63;100311.94;5093268;28;20231;-82
2021/11/24 09:42:55;;;;;;;7.07;5.00;;;;;;;4.27;65.16;100296.03;5119446;22;20222;-82
2021/11/24 09:45:49;;;;;;;6.07;4.70;;;;;;;4.36;64.73;100297.69;5122173;22;20269;-82
2021/11/24 09:48:41;;;;;;;6.27;5.20;;;;;;;4.48;65.56;100292.88;5101942;22;21140;-82
2021/11/24 09:51:35;;;;;;;8.47;5.00;;;;;;;4.65;64.91;100302.53;5128045;22;20228;-81
2021/11/24 09:54:20;;;;;;;7.50;4.23;;;;;;;4.90;63.04;100303.34;5099864;22;20209;-82
2021/11/24 09:56:51;;;;;;;7.73;4.60;;;;;;;4.97;63.60;100291.09;5082512;23;20237;-82
2021/11/24 09:59:24;;;;;;;6.90;5.00;;;;;;;5.03;63.78;100286.94;5087565;22;20232;-82
2021/11/24 10:02:04;;;;;;;8.40;5.40;;;;;;;5.02;64.34;100275.47;5104189;22;20239;31
2021/11/24 10:04:55;;;;;;;8.37;6.00;;;;;;;5.08;64.14;100285.44;4990424;28;20291;-83
2021/11/24 10:07:47;;;;;;;11.33;5.43;;;;;;;5.22;63.89;100287.41;5063542;22;20213;-82
2021/11/24 10:10:14;;;;;;;10.03;5.13;;;;;;;5.34;63.77;100287.88;5090473;22;20231;-82
2021/11/24 10:12:45;;;;;;;10.40;4.90;;;;;;;5.40;63.67;100278.38;5042755;28;20221;-82
2021/11/24 10:15:52;;;;;;;9.03;5.00;;;;;;;5.45;63.36;100274.22;5058946;28;20236;-82
2021/11/24 10:18:35;;;;;;;8.00;5.23;;;;;;;5.76;62.83;100271.59;5079834;22;20229;-82
2021/11/24 10:21:12;;;;;;;8.00;5.20;;;;;;;6.13;62.92;100252.31;5073672;28;20196;-82
2021/11/24 10:23:46;;;;;;;5.73;4.33;;;;;;;6.32;62.22;100240.38;5063477;28;20231;-82
2021/11/24 10:26:34;;;;;;;5.40;4.50;;;;;;;6.55;61.57;100234.06;5086075;28;20246;-82
2021/11/24 10:29:26;;;;;;;5.67;4.40;;;;;;;6.56;62.07;100229.56;5058383;28;20221;-83
2021/11/24 10:32:00;;;;;;;5.73;4.03;;;;;;;6.53;61.94;100224.59;5085153;28;20233;-82
2021/11/24 10:34:34;;;;;;;4.40;4.00;;;;;;;6.56;62.28;100235.72;5037735;28;20221;-82
2021/11/24 10:37:30;;;;;;;6.40;4.53;;;;;;;6.80;61.42;100225.84;5062336;28;20228;-82
2021/11/24 10:40:10;;;;;;;5.60;4.23;;;;;;;6.92;61.20;100217.22;5051244;28;20212;-82
2021/11/24 10:42:48;;;;;;;8.20;5.20;;;;;;;7.06;60.24;100216.44;5054877;28;20232;-82
2021/11/24 10:45:21;;;;;;;5.23;4.57;;;;;;;7.07;61.39;100210.09;5048641;28;20232;-83
2021/11/24 10:48:01;;;;;;;4.93;4.50;;;;;;;7.44;60.54;100203.84;5067007;28;20541;-82
2021/11/24 10:50:33;;;;;;;3.30;3.00;;;;;;;7.57;59.86;100205.84;5045627;28;20222;-83
2021/11/24 10:53:04;;;;;;;4.20;3.30;;;;;;;7.51;59.73;100202.06;5036802;28;20663;-83
2021/11/24 10:55:36;;;;;;;3.00;2.70;;;;;;;7.45;59.89;100194.84;5046431;28;20256;-83
2021/11/24 10:58:11;;;;;;;3.27;2.97;;;;;;;7.49;60.49;100193.44;5047680;28;20238;-83
2021/11/24 11:00:50;;;;;;;3.57;3.27;;;;;;;7.50;59.94;100187.09;5034707;28;20174;-82
2021/11/24 11:03:37;;;;;;;5.07;3.40;;;;;;;7.46;60.11;100177.81;5018514;28;20257;-83
2021/11/24 11:06:14;;;;;;;5.00;3.70;;;;;;;7.50;60.32;100178.28;5031190;28;20230;-83
2021/11/24 11:08:56;;;;;;;3.90;3.50;;;;;;;7.30;61.06;100166.53;5071940;28;20208;-83
2021/11/24 11:11:30;;;;;;;4.90;3.20;;;;;;;7.34;60.84;100176.63;5071554;28;20221;-82
2021/11/24 11:14:25;;;;;;;3.80;3.50;;;;;;;7.04;60.17;100154.50;5097113;22;20240;-84
2021/11/24 11:17:00;;;;;;;5.20;3.50;;;;;;;7.20;60.25;100165.97;5057365;28;20236;-83
2021/11/24 11:19:40;;;;;;;4.87;4.00;;;;;;;7.20;60.70;100157.97;5061191;28;20222;-83
2021/11/24 11:22:41;;;;;;;5.10;4.43;;;;;;;7.16;60.92;100148.72;5094731;28;20220;-83
2021/11/24 11:25:09;;;;;;;5.23;4.50;;;;;;;7.21;60.29;100157.81;5161974;22;20189;-82
2021/11/24 11:27:44;;;;;;;5.37;4.43;;;;;;;7.23;60.91;100155.75;5085182;22;20227;-83
2021/11/24 11:30:17;;;;;;;4.80;4.30;;;;;;;7.21;60.45;100151.66;5065375;22;20246;-83
2021/11/24 11:32:53;;;;;;;4.13;3.70;;;;;;;7.29;60.13;100151.53;5094327;28;20243;-82
2021/11/24 11:35:24;;;;;;;4.40;3.93;;;;;;;7.26;60.14;100143.91;5089502;28;20230;-83
2021/11/24 11:38:32;;;;;;;4.50;4.10;;;;;;;7.26;59.80;100138.59;5135460;22;20227;-82
2021/11/24 11:41:01;;;;;;;6.30;4.60;;;;;;;7.25;60.37;100128.94;5113893;28;20192;-82
2021/11/24 11:44:01;;;;;;;5.87;3.97;;;;;;;7.40;60.41;100127.09;5065997;23;20229;-81
2021/11/24 11:47:51;;;;;;;5.07;4.10;;;;;;;7.23;60.54;100125.66;5070663;23;20233;-81
2021/11/24 11:50:47;;;;;;;5.30;4.53;;;;;;;7.36;60.43;100121.31;5073634;28;20288;-83
2021/11/24 11:53:39;;;;;;;5.17;3.97;;;;;;;7.38;59.25;100113.09;5076453;28;20164;-82
2021/11/24 11:56:50;;;;;;;4.70;4.30;;;;;;;7.32;59.69;100096.03;5073329;28;20222;-82
2021/11/24 11:59:38;;;;;;;4.90;4.40;;;;;;;7.25;60.36;100099.63;5072643;28;20248;-82
2021/11/24 12:02:13;;;;;;;5.10;4.53;;;;;;;7.28;59.99;100088.59;5056025;28;20229;-82
2021/11/24 12:05:44;;;;;;;4.90;4.40;;;;;;;7.35;60.97;100100.97;5073784;28;20217;-82
2021/11/24 12:08:26;;;;;;;6.30;5.30;;;;;;;7.33;60.43;100089.66;5049498;28;20236;-83
2021/11/24 12:11:24;;;;;;;6.90;4.80;;;;;;;7.37;60.23;100076.81;5039665;28;20233;-82
2021/11/24 12:13:56;;;;;;;6.93;5.23;;;;;;;7.42;60.04;100079.72;5050852;28;20230;-83
2021/11/24 12:16:47;;;;;;;6.10;5.33;;;;;;;7.37;59.72;100085.63;5023171;28;20216;-82
2021/11/24 12:19:36;;;;;;;7.40;5.20;;;;;;;7.30;60.23;100071.41;5097812;23;20251;-82
2021/11/24 12:22:15;;;;;;;5.93;5.00;;;;;;;7.24;60.43;100056.16;5110786;28;20227;-82
2021/11/24 12:24:47;;;;;;;7.37;5.27;;;;;;;7.33;60.64;100068.34;5111562;22;20224;-82
2021/11/24 12:27:15;;;;;;;6.93;5.70;;;;;;;7.44;61.30;100067.03;5063855;28;20311;-83
2021/11/24 12:29:51;;;;;;;7.93;6.20;;;;;;;7.43;60.77;100062.72;5037685;28;20276;-82
2021/11/24 12:32:19;;;;;;;7.27;5.23;;;;;;;7.39;59.98;100051.63;5069828;23;20221;-83
2021/11/24 12:34:54;;;;;;;6.10;5.50;;;;;;;7.39;60.92;100056.94;5067097;23;20296;-82
2021/11/24 12:37:23;;;;;;;7.27;5.67;;;;;;;7.38;60.17;100044.63;5073737;28;20254;-82
2021/11/24 12:40:06;;;;;;;6.93;5.70;;;;;;;7.33;60.80;100039.03;5059507;28;20232;-82
2021/11/24 12:43:00;;;;;;;6.47;5.77;;;;;;;7.42;60.55;100037.06;5097646;22;20296;-82
2021/11/24 12:45:36;;;;;;;7.67;6.47;;;;;;;7.55;60.17;100034.56;5076246;28;20232;-82